sensor_id;sensor_type;location;lat;lon;timestamp;P1;durP1;ratioP1;P2;durP2;ratioP2
25567;SDS011;13455;51.480;7.594;2022-08-06T00:01:51;4.53;;;1.48;;
25567;SDS011;13455;51.480;7.594;2022-08-06T00:04:18;4.82;;;1.70;;
25567;SDS011;13455;51.480;7.594;2022-08-06T00:06:45;4.80;;;2.00;;
25567;SDS011;13455;51.480;7.594;2022-08-06T00:09:11;4.88;;;1.90;;
25567;SDS011;13455;51.480;7.594;2022-08-06T00:11:37;6.40;;;2.00;;
25567;SDS011;13455;51.480;7.594;2022-08-06T00:14:03;6.25;;;2.13;;
25567;SDS011;13455;51.480;7.594;2022-08-06T00:16:30;5.13;;;1.90;;
25567;SDS011;13455;51.480;7.594;2022-08-06T00:18:55;4.70;;;2.00;;
25567;SDS011;13455;51.480;7.594;2022-08-06T00:21:21;5.63;;;2.10;;
25567;SDS011;13455;51.480;7.594;2022-08-06T00:23:47;5.17;;;1.90;;
25567;SDS011;13455;51.480;7.594;2022-08-06T00:26:13;4.17;;;1.80;;
25567;SDS011;13455;51.480;7.594;2022-08-06T00:28:39;6.32;;;1.77;;
25567;SDS011;13455;51.480;7.594;2022-08-06T00:31:05;6.55;;;1.83;;
25567;SDS011;13455;51.480;7.594;2022-08-06T00:33:32;5.00;;;1.73;;
25567;SDS011;13455;51.480;7.594;2022-08-06T00:35:58;4.53;;;1.70;;
25567;SDS011;13455;51.480;7.594;2022-08-06T00:38:24;5.45;;;1.92;;
25567;SDS011;13455;51.480;7.594;2022-08-06T00:40:50;5.88;;;1.70;;
25567;SDS011;13455;51.480;7.594;2022-08-06T00:43:17;4.05;;;1.70;;
25567;SDS011;13455;51.480;7.594;2022-08-06T00:45:43;4.57;;;1.73;;
25567;SDS011;13455;51.480;7.594;2022-08-06T00:48:09;5.18;;;1.60;;
25567;SDS011;13455;51.480;7.594;2022-08-06T00:50:35;4.80;;;1.77;;
25567;SDS011;13455;51.480;7.594;2022-08-06T00:53:02;4.17;;;1.67;;
25567;SDS011;13455;51.480;7.594;2022-08-06T00:55:29;6.00;;;1.53;;
25567;SDS011;13455;51.480;7.594;2022-08-06T00:57:55;5.93;;;1.55;;
25567;SDS011;13455;51.480;7.594;2022-08-06T01:00:21;3.92;;;1.40;;
25567;SDS011;13455;51.480;7.594;2022-08-06T01:02:47;5.20;;;1.40;;
25567;SDS011;13455;51.480;7.594;2022-08-06T01:05:13;3.50;;;1.42;;
25567;SDS011;13455;51.480;7.594;2022-08-06T01:07:39;6.57;;;1.40;;
25567;SDS011;13455;51.480;7.594;2022-08-06T01:10:05;4.03;;;1.40;;
25567;SDS011;13455;51.480;7.594;2022-08-06T01:12:31;4.80;;;1.60;;
25567;SDS011;13455;51.480;7.594;2022-08-06T01:14:56;2.65;;;1.30;;
25567;SDS011;13455;51.480;7.594;2022-08-06T01:27:42;3.67;;;1.20;;
25567;SDS011;13455;51.480;7.594;2022-08-06T01:30:12;4.20;;;1.40;;
25567;SDS011;13455;51.480;7.594;2022-08-06T01:32:44;3.92;;;1.40;;
25567;SDS011;13455;51.480;7.594;2022-08-06T01:35:12;5.40;;;1.42;;
25567;SDS011;13455;51.480;7.594;2022-08-06T01:37:41;5.22;;;1.42;;
25567;SDS011;13455;51.480;7.594;2022-08-06T01:40:14;4.45;;;1.50;;
25567;SDS011;13455;51.480;7.594;2022-08-06T01:42:53;3.13;;;1.47;;
25567;SDS011;13455;51.480;7.594;2022-08-06T01:45:22;5.07;;;1.50;;
25567;SDS011;13455;51.480;7.594;2022-08-06T01:47:51;3.40;;;1.40;;
25567;SDS011;13455;51.480;7.594;2022-08-06T01:50:22;3.25;;;1.40;;
25567;SDS011;13455;51.480;7.594;2022-08-06T01:52:50;4.93;;;1.50;;
25567;SDS011;13455;51.480;7.594;2022-08-06T01:55:17;3.20;;;1.40;;
25567;SDS011;13455;51.480;7.594;2022-08-06T01:57:47;4.87;;;1.80;;
25567;SDS011;13455;51.480;7.594;2022-08-06T02:00:14;3.88;;;1.40;;
25567;SDS011;13455;51.480;7.594;2022-08-06T02:02:40;5.72;;;1.45;;
25567;SDS011;13455;51.480;7.594;2022-08-06T02:05:08;3.67;;;1.40;;
25567;SDS011;13455;51.480;7.594;2022-08-06T02:07:35;3.63;;;1.50;;
25567;SDS011;13455;51.480;7.594;2022-08-06T02:10:03;4.57;;;1.50;;
25567;SDS011;13455;51.480;7.594;2022-08-06T02:12:30;4.85;;;1.50;;
25567;SDS011;13455;51.480;7.594;2022-08-06T02:15:02;3.22;;;1.50;;
25567;SDS011;13455;51.480;7.594;2022-08-06T02:17:31;4.43;;;1.50;;
25567;SDS011;13455;51.480;7.594;2022-08-06T02:19:58;3.42;;;1.40;;
25567;SDS011;13455;51.480;7.594;2022-08-06T02:22:29;4.90;;;1.48;;
25567;SDS011;13455;51.480;7.594;2022-08-06T02:25:00;4.00;;;1.50;;
25567;SDS011;13455;51.480;7.594;2022-08-06T02:27:27;3.85;;;1.52;;
25567;SDS011;13455;51.480;7.594;2022-08-06T02:29:54;4.50;;;1.40;;
25567;SDS011;13455;51.480;7.594;2022-08-06T02:32:21;4.13;;;1.60;;
25567;SDS011;13455;51.480;7.594;2022-08-06T02:34:47;6.43;;;1.60;;
25567;SDS011;13455;51.480;7.594;2022-08-06T02:37:20;4.60;;;1.47;;
25567;SDS011;13455;51.480;7.594;2022-08-06T02:39:53;4.55;;;1.67;;
25567;SDS011;13455;51.480;7.594;2022-08-06T02:44:54;6.53;;;1.60;;
25567;SDS011;13455;51.480;7.594;2022-08-06T02:47:40;4.53;;;1.40;;
25567;SDS011;13455;51.480;7.594;2022-08-06T02:50:08;4.40;;;1.60;;
25567;SDS011;13455;51.480;7.594;2022-08-06T02:52:49;4.05;;;1.60;;
25567;SDS011;13455;51.480;7.594;2022-08-06T02:55:19;5.53;;;1.52;;
25567;SDS011;13455;51.480;7.594;2022-08-06T02:57:48;4.50;;;1.60;;
25567;SDS011;13455;51.480;7.594;2022-08-06T03:00:15;4.30;;;1.50;;
25567;SDS011;13455;51.480;7.594;2022-08-06T03:02:41;4.60;;;1.40;;
25567;SDS011;13455;51.480;7.594;2022-08-06T03:05:10;5.40;;;1.43;;
25567;SDS011;13455;51.480;7.594;2022-08-06T03:07:38;4.97;;;1.60;;
25567;SDS011;13455;51.480;7.594;2022-08-06T03:10:05;4.90;;;1.40;;
25567;SDS011;13455;51.480;7.594;2022-08-06T03:12:32;3.90;;;1.60;;
25567;SDS011;13455;51.480;7.594;2022-08-06T03:14:59;4.20;;;1.60;;
25567;SDS011;13455;51.480;7.594;2022-08-06T03:17:27;4.25;;;1.60;;
25567;SDS011;13455;51.480;7.594;2022-08-06T03:19:54;4.45;;;1.50;;
25567;SDS011;13455;51.480;7.594;2022-08-06T03:22:21;3.13;;;1.70;;
25567;SDS011;13455;51.480;7.594;2022-08-06T03:24:48;6.18;;;1.90;;
25567;SDS011;13455;51.480;7.594;2022-08-06T03:27:15;5.85;;;1.50;;
25567;SDS011;13455;51.480;7.594;2022-08-06T03:29:42;3.65;;;1.80;;
25567;SDS011;13455;51.480;7.594;2022-08-06T03:32:09;3.55;;;1.70;;
25567;SDS011;13455;51.480;7.594;2022-08-06T03:34:37;4.37;;;1.80;;
25567;SDS011;13455;51.480;7.594;2022-08-06T03:37:03;4.47;;;1.60;;
25567;SDS011;13455;51.480;7.594;2022-08-06T03:39:29;4.75;;;1.88;;
25567;SDS011;13455;51.480;7.594;2022-08-06T03:41:56;7.00;;;1.70;;
25567;SDS011;13455;51.480;7.594;2022-08-06T03:44:22;3.72;;;1.80;;
25567;SDS011;13455;51.480;7.594;2022-08-06T03:49:35;5.40;;;1.90;;
25567;SDS011;13455;51.480;7.594;2022-08-06T03:52:03;5.35;;;2.00;;
25567;SDS011;13455;51.480;7.594;2022-08-06T03:54:34;5.47;;;1.90;;
25567;SDS011;13455;51.480;7.594;2022-08-06T03:57:04;4.88;;;1.80;;
25567;SDS011;13455;51.480;7.594;2022-08-06T03:59:33;3.92;;;1.88;;
25567;SDS011;13455;51.480;7.594;2022-08-06T04:02:01;3.85;;;1.90;;
25567;SDS011;13455;51.480;7.594;2022-08-06T04:04:28;5.25;;;1.90;;
25567;SDS011;13455;51.480;7.594;2022-08-06T04:06:56;4.55;;;2.20;;
25567;SDS011;13455;51.480;7.594;2022-08-06T04:09:24;5.05;;;2.10;;
25567;SDS011;13455;51.480;7.594;2022-08-06T04:11:50;7.28;;;2.30;;
25567;SDS011;13455;51.480;7.594;2022-08-06T04:14:17;6.67;;;2.50;;
25567;SDS011;13455;51.480;7.594;2022-08-06T04:16:43;6.57;;;2.30;;
25567;SDS011;13455;51.480;7.594;2022-08-06T04:19:10;5.13;;;2.23;;
25567;SDS011;13455;51.480;7.594;2022-08-06T04:21:36;4.80;;;2.23;;
25567;SDS011;13455;51.480;7.594;2022-08-06T04:24:02;7.30;;;2.40;;
25567;SDS011;13455;51.480;7.594;2022-08-06T04:26:29;4.43;;;2.40;;
25567;SDS011;13455;51.480;7.594;2022-08-06T04:28:56;3.78;;;2.17;;
25567;SDS011;13455;51.480;7.594;2022-08-06T04:31:23;5.38;;;2.47;;
25567;SDS011;13455;51.480;7.594;2022-08-06T04:33:51;5.03;;;2.40;;
25567;SDS011;13455;51.480;7.594;2022-08-06T04:36:17;4.82;;;2.40;;
25567;SDS011;13455;51.480;7.594;2022-08-06T04:38:45;4.55;;;2.47;;
25567;SDS011;13455;51.480;7.594;2022-08-06T04:41:11;4.03;;;2.20;;
25567;SDS011;13455;51.480;7.594;2022-08-06T04:43:38;4.82;;;2.38;;
25567;SDS011;13455;51.480;7.594;2022-08-06T04:46:04;5.93;;;2.50;;
25567;SDS011;13455;51.480;7.594;2022-08-06T04:48:30;5.60;;;2.50;;
25567;SDS011;13455;51.480;7.594;2022-08-06T04:50:56;7.50;;;2.60;;
25567;SDS011;13455;51.480;7.594;2022-08-06T04:53:22;6.57;;;2.53;;
25567;SDS011;13455;51.480;7.594;2022-08-06T04:55:48;5.68;;;2.58;;
25567;SDS011;13455;51.480;7.594;2022-08-06T04:58:15;4.50;;;2.50;;
25567;SDS011;13455;51.480;7.594;2022-08-06T05:00:42;5.10;;;2.60;;
25567;SDS011;13455;51.480;7.594;2022-08-06T05:03:08;8.10;;;2.63;;
25567;SDS011;13455;51.480;7.594;2022-08-06T05:08:40;6.05;;;2.80;;
25567;SDS011;13455;51.480;7.594;2022-08-06T05:13:43;8.00;;;3.00;;
25567;SDS011;13455;51.480;7.594;2022-08-06T05:16:09;5.07;;;3.00;;
25567;SDS011;13455;51.480;7.594;2022-08-06T05:18:51;5.40;;;2.80;;
25567;SDS011;13455;51.480;7.594;2022-08-06T05:21:20;8.00;;;3.20;;
25567;SDS011;13455;51.480;7.594;2022-08-06T05:23:50;7.20;;;3.33;;
25567;SDS011;13455;51.480;7.594;2022-08-06T05:26:18;7.93;;;3.28;;
25567;SDS011;13455;51.480;7.594;2022-08-06T05:28:45;5.80;;;3.03;;
25567;SDS011;13455;51.480;7.594;2022-08-06T05:31:11;7.53;;;3.00;;
25567;SDS011;13455;51.480;7.594;2022-08-06T05:33:38;5.43;;;3.00;;
25567;SDS011;13455;51.480;7.594;2022-08-06T05:36:05;6.90;;;3.00;;
25567;SDS011;13455;51.480;7.594;2022-08-06T05:38:39;8.03;;;3.23;;
25567;SDS011;13455;51.480;7.594;2022-08-06T05:41:09;7.47;;;3.20;;
25567;SDS011;13455;51.480;7.594;2022-08-06T05:43:39;8.77;;;3.00;;
25567;SDS011;13455;51.480;7.594;2022-08-06T05:46:09;7.53;;;3.17;;
25567;SDS011;13455;51.480;7.594;2022-08-06T05:48:55;7.05;;;2.90;;
25567;SDS011;13455;51.480;7.594;2022-08-06T05:51:27;9.27;;;3.60;;
25567;SDS011;13455;51.480;7.594;2022-08-06T05:53:57;6.93;;;3.30;;
25567;SDS011;13455;51.480;7.594;2022-08-06T05:56:25;6.78;;;3.38;;
25567;SDS011;13455;51.480;7.594;2022-08-06T05:58:58;9.55;;;3.20;;
25567;SDS011;13455;51.480;7.594;2022-08-06T06:01:25;9.67;;;3.70;;
25567;SDS011;13455;51.480;7.594;2022-08-06T06:03:51;9.80;;;3.60;;
25567;SDS011;13455;51.480;7.594;2022-08-06T06:06:22;8.85;;;3.53;;
25567;SDS011;13455;51.480;7.594;2022-08-06T06:08:48;9.98;;;5.15;;
25567;SDS011;13455;51.480;7.594;2022-08-06T06:11:14;10.38;;;5.38;;
25567;SDS011;13455;51.480;7.594;2022-08-06T06:13:42;9.25;;;4.40;;
25567;SDS011;13455;51.480;7.594;2022-08-06T06:23:46;10.30;;;4.95;;
25567;SDS011;13455;51.480;7.594;2022-08-06T06:36:36;8.63;;;4.35;;
25567;SDS011;13455;51.480;7.594;2022-08-06T06:39:08;7.88;;;4.00;;
25567;SDS011;13455;51.480;7.594;2022-08-06T06:42:01;9.13;;;4.00;;
25567;SDS011;13455;51.480;7.594;2022-08-06T06:44:42;9.70;;;3.50;;
25567;SDS011;13455;51.480;7.594;2022-08-06T06:47:14;7.43;;;3.45;;
25567;SDS011;13455;51.480;7.594;2022-08-06T06:49:42;8.43;;;3.50;;
25567;SDS011;13455;51.480;7.594;2022-08-06T06:52:16;10.15;;;3.33;;
25567;SDS011;13455;51.480;7.594;2022-08-06T06:54:58;5.20;;;2.03;;
25567;SDS011;13455;51.480;7.594;2022-08-06T07:00:07;4.90;;;1.67;;
25567;SDS011;13455;51.480;7.594;2022-08-06T07:02:35;6.68;;;1.67;;
25567;SDS011;13455;51.480;7.594;2022-08-06T07:05:05;4.90;;;1.40;;
25567;SDS011;13455;51.480;7.594;2022-08-06T07:07:33;6.50;;;1.67;;
25567;SDS011;13455;51.480;7.594;2022-08-06T07:09:59;5.88;;;1.50;;
25567;SDS011;13455;51.480;7.594;2022-08-06T07:12:27;5.35;;;1.25;;
25567;SDS011;13455;51.480;7.594;2022-08-06T07:14:54;6.35;;;1.50;;
25567;SDS011;13455;51.480;7.594;2022-08-06T07:17:23;4.32;;;1.48;;
25567;SDS011;13455;51.480;7.594;2022-08-06T07:19:50;5.07;;;1.53;;
25567;SDS011;13455;51.480;7.594;2022-08-06T07:22:22;5.53;;;1.33;;
25567;SDS011;13455;51.480;7.594;2022-08-06T07:24:54;6.25;;;1.45;;
25567;SDS011;13455;51.480;7.594;2022-08-06T07:27:21;4.05;;;1.50;;
25567;SDS011;13455;51.480;7.594;2022-08-06T07:29:49;4.97;;;1.50;;
25567;SDS011;13455;51.480;7.594;2022-08-06T07:32:16;5.20;;;1.40;;
25567;SDS011;13455;51.480;7.594;2022-08-06T07:34:42;4.80;;;1.30;;
25567;SDS011;13455;51.480;7.594;2022-08-06T07:37:08;6.55;;;1.23;;
25567;SDS011;13455;51.480;7.594;2022-08-06T07:39:37;8.02;;;1.50;;
25567;SDS011;13455;51.480;7.594;2022-08-06T07:42:06;4.93;;;1.27;;
25567;SDS011;13455;51.480;7.594;2022-08-06T07:44:35;6.10;;;1.10;;
25567;SDS011;13455;51.480;7.594;2022-08-06T07:47:03;6.70;;;1.20;;
25567;SDS011;13455;51.480;7.594;2022-08-06T07:49:35;5.18;;;1.00;;
25567;SDS011;13455;51.480;7.594;2022-08-06T07:52:04;6.50;;;1.10;;
25567;SDS011;13455;51.480;7.594;2022-08-06T07:54:31;3.85;;;1.13;;
25567;SDS011;13455;51.480;7.594;2022-08-06T07:56:58;4.97;;;1.05;;
25567;SDS011;13455;51.480;7.594;2022-08-06T07:59:24;3.78;;;0.88;;
25567;SDS011;13455;51.480;7.594;2022-08-06T08:01:51;2.27;;;0.80;;
25567;SDS011;13455;51.480;7.594;2022-08-06T08:04:17;3.95;;;0.90;;
25567;SDS011;13455;51.480;7.594;2022-08-06T08:07:04;5.53;;;1.00;;
25567;SDS011;13455;51.480;7.594;2022-08-06T08:09:30;4.80;;;1.10;;
25567;SDS011;13455;51.480;7.594;2022-08-06T08:11:56;5.22;;;1.00;;
25567;SDS011;13455;51.480;7.594;2022-08-06T08:14:23;4.13;;;0.80;;
25567;SDS011;13455;51.480;7.594;2022-08-06T08:16:49;3.65;;;0.70;;
25567;SDS011;13455;51.480;7.594;2022-08-06T08:19:25;8.30;;;1.00;;
25567;SDS011;13455;51.480;7.594;2022-08-06T08:22:02;2.47;;;0.60;;
25567;SDS011;13455;51.480;7.594;2022-08-06T08:24:31;3.60;;;0.70;;
25567;SDS011;13455;51.480;7.594;2022-08-06T08:26:58;4.18;;;0.90;;
25567;SDS011;13455;51.480;7.594;2022-08-06T08:29:24;6.47;;;0.93;;
25567;SDS011;13455;51.480;7.594;2022-08-06T08:31:50;3.88;;;1.10;;
25567;SDS011;13455;51.480;7.594;2022-08-06T08:34:16;3.23;;;0.90;;
25567;SDS011;13455;51.480;7.594;2022-08-06T08:36:42;5.97;;;1.10;;
25567;SDS011;13455;51.480;7.594;2022-08-06T08:39:08;3.03;;;0.93;;
25567;SDS011;13455;51.480;7.594;2022-08-06T08:41:36;4.43;;;1.00;;
25567;SDS011;13455;51.480;7.594;2022-08-06T08:44:03;3.37;;;1.00;;
25567;SDS011;13455;51.480;7.594;2022-08-06T08:46:34;3.17;;;0.88;;
25567;SDS011;13455;51.480;7.594;2022-08-06T08:49:10;4.72;;;0.90;;
25567;SDS011;13455;51.480;7.594;2022-08-06T08:51:43;2.17;;;0.75;;
25567;SDS011;13455;51.480;7.594;2022-08-06T08:54:13;2.72;;;0.60;;
25567;SDS011;13455;51.480;7.594;2022-08-06T08:56:41;4.10;;;0.80;;
25567;SDS011;13455;51.480;7.594;2022-08-06T08:59:08;2.80;;;0.80;;
25567;SDS011;13455;51.480;7.594;2022-08-06T09:01:34;2.53;;;0.60;;
25567;SDS011;13455;51.480;7.594;2022-08-06T09:04:03;2.70;;;0.60;;
25567;SDS011;13455;51.480;7.594;2022-08-06T09:06:30;3.45;;;0.73;;
25567;SDS011;13455;51.480;7.594;2022-08-06T09:08:58;3.22;;;0.70;;
25567;SDS011;13455;51.480;7.594;2022-08-06T09:11:28;4.05;;;0.60;;
25567;SDS011;13455;51.480;7.594;2022-08-06T09:13:54;2.85;;;0.60;;
25567;SDS011;13455;51.480;7.594;2022-08-06T09:16:20;3.55;;;0.65;;
25567;SDS011;13455;51.480;7.594;2022-08-06T09:18:49;3.40;;;0.60;;
25567;SDS011;13455;51.480;7.594;2022-08-06T09:21:17;3.40;;;0.70;;
25567;SDS011;13455;51.480;7.594;2022-08-06T09:23:44;2.75;;;0.70;;
25567;SDS011;13455;51.480;7.594;2022-08-06T09:26:10;2.20;;;0.50;;
25567;SDS011;13455;51.480;7.594;2022-08-06T09:28:40;2.83;;;0.70;;
25567;SDS011;13455;51.480;7.594;2022-08-06T09:33:34;3.30;;;0.50;;
25567;SDS011;13455;51.480;7.594;2022-08-06T09:36:02;2.85;;;0.47;;
25567;SDS011;13455;51.480;7.594;2022-08-06T09:38:28;2.10;;;0.50;;
25567;SDS011;13455;51.480;7.594;2022-08-06T09:41:05;2.50;;;0.60;;
25567;SDS011;13455;51.480;7.594;2022-08-06T09:43:31;2.63;;;0.57;;
25567;SDS011;13455;51.480;7.594;2022-08-06T09:45:59;3.03;;;0.50;;
25567;SDS011;13455;51.480;7.594;2022-08-06T09:48:25;3.42;;;0.60;;
25567;SDS011;13455;51.480;7.594;2022-08-06T09:50:51;4.47;;;0.60;;
25567;SDS011;13455;51.480;7.594;2022-08-06T09:53:17;2.00;;;0.40;;
25567;SDS011;13455;51.480;7.594;2022-08-06T09:55:43;1.70;;;0.40;;
25567;SDS011;13455;51.480;7.594;2022-08-06T09:58:10;2.50;;;0.40;;
25567;SDS011;13455;51.480;7.594;2022-08-06T10:00:36;1.42;;;0.40;;
25567;SDS011;13455;51.480;7.594;2022-08-06T10:03:03;1.40;;;0.40;;
25567;SDS011;13455;51.480;7.594;2022-08-06T10:05:31;2.60;;;0.50;;
25567;SDS011;13455;51.480;7.594;2022-08-06T10:08:08;2.45;;;0.55;;
25567;SDS011;13455;51.480;7.594;2022-08-06T10:10:38;2.45;;;0.50;;
25567;SDS011;13455;51.480;7.594;2022-08-06T10:15:46;2.25;;;0.50;;
25567;SDS011;13455;51.480;7.594;2022-08-06T10:21:04;1.42;;;0.50;;
25567;SDS011;13455;51.480;7.594;2022-08-06T10:23:31;1.17;;;0.32;;
25567;SDS011;13455;51.480;7.594;2022-08-06T10:25:58;1.40;;;0.50;;
25567;SDS011;13455;51.480;7.594;2022-08-06T10:28:25;1.02;;;0.35;;
25567;SDS011;13455;51.480;7.594;2022-08-06T10:30:51;1.42;;;0.45;;
25567;SDS011;13455;51.480;7.594;2022-08-06T10:33:18;1.88;;;0.40;;
25567;SDS011;13455;51.480;7.594;2022-08-06T10:35:45;2.10;;;0.40;;
25567;SDS011;13455;51.480;7.594;2022-08-06T10:38:13;1.85;;;0.40;;
25567;SDS011;13455;51.480;7.594;2022-08-06T10:40:41;1.77;;;0.40;;
25567;SDS011;13455;51.480;7.594;2022-08-06T10:43:09;2.20;;;0.40;;
25567;SDS011;13455;51.480;7.594;2022-08-06T10:45:35;4.63;;;0.50;;
25567;SDS011;13455;51.480;7.594;2022-08-06T10:48:03;2.30;;;0.43;;
25567;SDS011;13455;51.480;7.594;2022-08-06T10:50:29;1.70;;;0.50;;
25567;SDS011;13455;51.480;7.594;2022-08-06T10:52:56;2.47;;;0.40;;
25567;SDS011;13455;51.480;7.594;2022-08-06T10:55:23;1.20;;;0.40;;
25567;SDS011;13455;51.480;7.594;2022-08-06T10:57:49;2.05;;;0.50;;
25567;SDS011;13455;51.480;7.594;2022-08-06T11:00:15;1.42;;;0.40;;
25567;SDS011;13455;51.480;7.594;2022-08-06T11:05:09;1.27;;;0.40;;
25567;SDS011;13455;51.480;7.594;2022-08-06T11:07:49;0.93;;;0.32;;
25567;SDS011;13455;51.480;7.594;2022-08-06T11:13:08;1.40;;;0.40;;
25567;SDS011;13455;51.480;7.594;2022-08-06T11:15:37;1.60;;;0.40;;
25567;SDS011;13455;51.480;7.594;2022-08-06T11:18:06;2.15;;;0.40;;
25567;SDS011;13455;51.480;7.594;2022-08-06T11:23:21;1.33;;;0.30;;
25567;SDS011;13455;51.480;7.594;2022-08-06T11:25:52;2.25;;;0.30;;
25567;SDS011;13455;51.480;7.594;2022-08-06T11:28:20;1.20;;;0.30;;
25567;SDS011;13455;51.480;7.594;2022-08-06T11:31:06;0.77;;;0.20;;
25567;SDS011;13455;51.480;7.594;2022-08-06T11:36:02;2.33;;;0.40;;
25567;SDS011;13455;51.480;7.594;2022-08-06T11:41:16;0.90;;;0.20;;
25567;SDS011;13455;51.480;7.594;2022-08-06T11:46:18;1.30;;;0.20;;
25567;SDS011;13455;51.480;7.594;2022-08-06T11:51:37;1.50;;;0.30;;
25567;SDS011;13455;51.480;7.594;2022-08-06T11:59:23;1.48;;;0.30;;
25567;SDS011;13455;51.480;7.594;2022-08-06T12:01:49;0.38;;;0.20;;
25567;SDS011;13455;51.480;7.594;2022-08-06T12:07:22;1.50;;;0.40;;
25567;SDS011;13455;51.480;7.594;2022-08-06T12:09:50;1.67;;;0.50;;
25567;SDS011;13455;51.480;7.594;2022-08-06T12:14:49;0.97;;;0.30;;
25567;SDS011;13455;51.480;7.594;2022-08-06T12:17:15;3.55;;;0.40;;
25567;SDS011;13455;51.480;7.594;2022-08-06T12:19:42;1.80;;;0.30;;
25567;SDS011;13455;51.480;7.594;2022-08-06T12:22:09;0.90;;;0.30;;
25567;SDS011;13455;51.480;7.594;2022-08-06T12:24:37;1.15;;;0.20;;
25567;SDS011;13455;51.480;7.594;2022-08-06T12:27:07;1.35;;;0.32;;
25567;SDS011;13455;51.480;7.594;2022-08-06T12:29:33;0.90;;;0.30;;
25567;SDS011;13455;51.480;7.594;2022-08-06T12:31:59;1.77;;;0.40;;
25567;SDS011;13455;51.480;7.594;2022-08-06T12:34:25;1.13;;;0.30;;
25567;SDS011;13455;51.480;7.594;2022-08-06T12:36:59;0.87;;;0.30;;
25567;SDS011;13455;51.480;7.594;2022-08-06T12:39:25;1.93;;;0.30;;
25567;SDS011;13455;51.480;7.594;2022-08-06T12:42:21;1.90;;;0.30;;
25567;SDS011;13455;51.480;7.594;2022-08-06T12:44:47;0.88;;;0.30;;
25567;SDS011;13455;51.480;7.594;2022-08-06T12:47:16;1.00;;;0.30;;
25567;SDS011;13455;51.480;7.594;2022-08-06T12:49:45;1.60;;;0.30;;
25567;SDS011;13455;51.480;7.594;2022-08-06T12:52:14;2.22;;;0.40;;
25567;SDS011;13455;51.480;7.594;2022-08-06T12:54:50;1.20;;;0.28;;
25567;SDS011;13455;51.480;7.594;2022-08-06T12:57:20;3.10;;;0.50;;
25567;SDS011;13455;51.480;7.594;2022-08-06T12:59:46;1.13;;;0.30;;
25567;SDS011;13455;51.480;7.594;2022-08-06T13:02:13;0.80;;;0.20;;
25567;SDS011;13455;51.480;7.594;2022-08-06T13:04:41;1.00;;;0.30;;
25567;SDS011;13455;51.480;7.594;2022-08-06T13:07:08;1.67;;;0.20;;
25567;SDS011;13455;51.480;7.594;2022-08-06T13:09:34;0.70;;;0.30;;
25567;SDS011;13455;51.480;7.594;2022-08-06T13:14:47;1.40;;;0.30;;
25567;SDS011;13455;51.480;7.594;2022-08-06T13:17:14;1.38;;;0.20;;
25567;SDS011;13455;51.480;7.594;2022-08-06T13:19:50;1.38;;;0.30;;
25567;SDS011;13455;51.480;7.594;2022-08-06T13:22:29;1.48;;;0.25;;
25567;SDS011;13455;51.480;7.594;2022-08-06T13:25:15;1.33;;;0.30;;
25567;SDS011;13455;51.480;7.594;2022-08-06T13:27:42;1.27;;;0.38;;
25567;SDS011;13455;51.480;7.594;2022-08-06T13:30:09;1.00;;;0.30;;
25567;SDS011;13455;51.480;7.594;2022-08-06T13:32:35;1.85;;;0.30;;
25567;SDS011;13455;51.480;7.594;2022-08-06T13:35:03;0.85;;;0.20;;
25567;SDS011;13455;51.480;7.594;2022-08-06T13:37:50;1.73;;;0.25;;
25567;SDS011;13455;51.480;7.594;2022-08-06T13:40:17;0.80;;;0.20;;
25567;SDS011;13455;51.480;7.594;2022-08-06T13:42:50;1.30;;;0.27;;
25567;SDS011;13455;51.480;7.594;2022-08-06T13:45:26;0.65;;;0.20;;
25567;SDS011;13455;51.480;7.594;2022-08-06T13:48:02;1.40;;;0.30;;
25567;SDS011;13455;51.480;7.594;2022-08-06T13:50:29;1.83;;;0.20;;
25567;SDS011;13455;51.480;7.594;2022-08-06T13:52:57;0.87;;;0.27;;
25567;SDS011;13455;51.480;7.594;2022-08-06T13:55:23;0.65;;;0.20;;
25567;SDS011;13455;51.480;7.594;2022-08-06T13:57:51;1.30;;;0.30;;
25567;SDS011;13455;51.480;7.594;2022-08-06T14:00:17;0.70;;;0.27;;
25567;SDS011;13455;51.480;7.594;2022-08-06T14:02:43;1.30;;;0.20;;
25567;SDS011;13455;51.480;7.594;2022-08-06T14:05:11;0.57;;;0.20;;
25567;SDS011;13455;51.480;7.594;2022-08-06T14:07:37;1.30;;;0.20;;
25567;SDS011;13455;51.480;7.594;2022-08-06T14:10:03;1.42;;;0.30;;
25567;SDS011;13455;51.480;7.594;2022-08-06T14:12:30;1.48;;;0.30;;
25567;SDS011;13455;51.480;7.594;2022-08-06T14:14:57;1.02;;;0.28;;
25567;SDS011;13455;51.480;7.594;2022-08-06T14:17:23;1.15;;;0.30;;
25567;SDS011;13455;51.480;7.594;2022-08-06T14:19:49;1.58;;;0.22;;
25567;SDS011;13455;51.480;7.594;2022-08-06T14:22:15;1.93;;;0.30;;
25567;SDS011;13455;51.480;7.594;2022-08-06T14:24:42;1.13;;;0.40;;
25567;SDS011;13455;51.480;7.594;2022-08-06T14:27:09;1.10;;;0.30;;
25567;SDS011;13455;51.480;7.594;2022-08-06T14:29:35;1.05;;;0.20;;
25567;SDS011;13455;51.480;7.594;2022-08-06T14:32:02;1.10;;;0.30;;
25567;SDS011;13455;51.480;7.594;2022-08-06T14:34:28;0.63;;;0.30;;
25567;SDS011;13455;51.480;7.594;2022-08-06T14:36:54;1.63;;;0.40;;
25567;SDS011;13455;51.480;7.594;2022-08-06T14:39:20;0.90;;;0.30;;
25567;SDS011;13455;51.480;7.594;2022-08-06T14:41:46;2.50;;;0.40;;
25567;SDS011;13455;51.480;7.594;2022-08-06T14:44:30;1.88;;;0.40;;
25567;SDS011;13455;51.480;7.594;2022-08-06T14:47:15;2.33;;;0.50;;
25567;SDS011;13455;51.480;7.594;2022-08-06T14:49:41;1.15;;;0.45;;
25567;SDS011;13455;51.480;7.594;2022-08-06T14:52:07;2.70;;;0.47;;
25567;SDS011;13455;51.480;7.594;2022-08-06T14:54:34;0.93;;;0.30;;
25567;SDS011;13455;51.480;7.594;2022-08-06T14:57:01;1.10;;;0.30;;
25567;SDS011;13455;51.480;7.594;2022-08-06T14:59:29;2.00;;;0.35;;
25567;SDS011;13455;51.480;7.594;2022-08-06T15:01:54;2.17;;;0.63;;
25567;SDS011;13455;51.480;7.594;2022-08-06T15:04:21;0.93;;;0.30;;
25567;SDS011;13455;51.480;7.594;2022-08-06T15:06:47;1.17;;;0.30;;
25567;SDS011;13455;51.480;7.594;2022-08-06T15:09:13;0.70;;;0.20;;
25567;SDS011;13455;51.480;7.594;2022-08-06T15:11:39;1.33;;;0.40;;
25567;SDS011;13455;51.480;7.594;2022-08-06T15:14:06;1.10;;;0.30;;
25567;SDS011;13455;51.480;7.594;2022-08-06T15:16:31;1.50;;;0.30;;
25567;SDS011;13455;51.480;7.594;2022-08-06T15:18:57;0.80;;;0.30;;
25567;SDS011;13455;51.480;7.594;2022-08-06T15:21:24;1.30;;;0.30;;
25567;SDS011;13455;51.480;7.594;2022-08-06T15:23:50;1.25;;;0.30;;
25567;SDS011;13455;51.480;7.594;2022-08-06T15:26:19;1.80;;;0.30;;
25567;SDS011;13455;51.480;7.594;2022-08-06T15:28:45;0.70;;;0.20;;
25567;SDS011;13455;51.480;7.594;2022-08-06T15:31:11;0.98;;;0.30;;
25567;SDS011;13455;51.480;7.594;2022-08-06T15:33:36;1.87;;;0.33;;
25567;SDS011;13455;51.480;7.594;2022-08-06T15:36:02;1.07;;;0.40;;
25567;SDS011;13455;51.480;7.594;2022-08-06T15:38:28;0.90;;;0.30;;
25567;SDS011;13455;51.480;7.594;2022-08-06T15:40:54;1.45;;;0.30;;
25567;SDS011;13455;51.480;7.594;2022-08-06T15:43:23;1.30;;;0.30;;
25567;SDS011;13455;51.480;7.594;2022-08-06T15:45:49;1.50;;;0.30;;
25567;SDS011;13455;51.480;7.594;2022-08-06T15:48:16;1.80;;;0.40;;
25567;SDS011;13455;51.480;7.594;2022-08-06T15:50:43;2.47;;;0.47;;
25567;SDS011;13455;51.480;7.594;2022-08-06T15:53:11;3.55;;;0.40;;
25567;SDS011;13455;51.480;7.594;2022-08-06T15:55:39;1.05;;;0.60;;
25567;SDS011;13455;51.480;7.594;2022-08-06T15:58:06;1.95;;;0.43;;
25567;SDS011;13455;51.480;7.594;2022-08-06T16:00:35;1.30;;;0.30;;
25567;SDS011;13455;51.480;7.594;2022-08-06T16:03:05;1.13;;;0.30;;
25567;SDS011;13455;51.480;7.594;2022-08-06T16:05:32;2.38;;;1.25;;
25567;SDS011;13455;51.480;7.594;2022-08-06T16:07:59;4.25;;;1.20;;
25567;SDS011;13455;51.480;7.594;2022-08-06T16:10:25;2.70;;;0.65;;
25567;SDS011;13455;51.480;7.594;2022-08-06T16:12:51;1.40;;;0.30;;
25567;SDS011;13455;51.480;7.594;2022-08-06T16:15:17;1.40;;;0.40;;
25567;SDS011;13455;51.480;7.594;2022-08-06T16:17:43;1.00;;;0.30;;